createdAt,value
2019-02-20T00:02:41.269Z,41.40
2019-02-20T00:07:46.455Z,41.67
2019-02-20T00:12:56.520Z,42.93
2019-02-20T00:18:01.598Z,44.53
2019-02-20T00:23:06.673Z,44.80
2019-02-20T00:28:12.204Z,44.27
2019-02-20T00:33:17.304Z,38.87
2019-02-20T00:38:22.733Z,40.80
2019-02-20T00:43:27.914Z,45.88
2019-02-20T00:48:50.881Z,45.58
2019-02-20T00:53:59.052Z,44.95
2019-02-20T00:59:04.058Z,42.78
2019-02-20T01:04:09.160Z,47.08
2019-02-20T01:09:14.262Z,52.78
2019-02-20T01:14:19.286Z,52.65
2019-02-20T01:19:24.803Z,41.47
2019-02-20T01:24:31.184Z,43.40
2019-02-20T01:29:36.640Z,46.53
2019-02-20T01:34:41.728Z,44.80
2019-02-20T01:39:49.422Z,44.53
2019-02-20T01:44:54.390Z,41.57
2019-02-20T01:49:59.428Z,43.57
2019-02-20T01:55:04.889Z,45.83
2019-02-20T02:00:10.343Z,49.03
2019-02-20T02:05:16.025Z,41.77
2019-02-20T02:10:22.298Z,43.00
2019-02-20T02:15:27.704Z,43.03
2019-02-20T02:20:32.854Z,43.03
2019-02-20T02:25:37.936Z,43.30
2019-02-20T02:30:42.940Z,41.90
2019-02-20T02:35:48.610Z,41.10
2019-02-20T02:40:54.735Z,40.97
2019-02-20T02:45:59.899Z,42.07
2019-02-20T02:51:05.461Z,40.53
2019-02-20T02:56:10.532Z,45.97
2019-02-20T03:01:15.614Z,46.77
2019-02-20T03:06:20.640Z,42.30
2019-02-20T03:11:25.663Z,47.07
2019-02-20T03:16:30.782Z,49.37
2019-02-20T03:21:35.844Z,44.20
2019-02-20T03:26:40.926Z,51.90
2019-02-20T03:31:46.367Z,47.50
2019-02-20T03:36:51.368Z,52.47
2019-02-20T03:41:56.951Z,52.93
2019-02-20T03:47:02.218Z,53.03
2019-02-20T03:52:07.446Z,49.30
2019-02-20T03:57:12.583Z,47.30
2019-02-20T04:02:17.996Z,48.40
2019-02-20T04:07:23.108Z,52.80
2019-02-20T04:12:28.579Z,50.53
2019-02-20T04:17:34.081Z,48.83
2019-02-20T04:22:39.277Z,49.23
2019-02-20T04:27:44.389Z,48.10
2019-02-20T04:32:49.796Z,51.03
2019-02-20T04:37:55.975Z,50.10
2019-02-20T04:43:00.985Z,50.70
2019-02-20T04:48:06.005Z,52.80
2019-02-20T04:53:11.131Z,44.13
2019-02-20T04:58:18.901Z,50.47
2019-02-20T05:03:23.907Z,48.03
2019-02-20T05:08:29.072Z,45.37
2019-02-20T05:13:35.096Z,49.73
2019-02-20T05:18:40.180Z,50.73
2019-02-20T05:23:45.370Z,53.80
2019-02-20T05:28:50.871Z,52.67
2019-02-20T05:33:55.894Z,48.00
2019-02-20T05:39:01.739Z,50.60
2019-02-20T05:44:08.473Z,54.27
2019-02-20T05:49:13.557Z,55.03
2019-02-20T05:54:20.055Z,50.10
2019-02-20T05:59:25.253Z,45.90
2019-02-20T06:04:30.286Z,46.77
2019-02-20T06:09:35.362Z,49.47
2019-02-20T06:14:40.766Z,46.63
2019-02-20T06:19:45.903Z,46.63
2019-02-20T06:24:51.435Z,49.23
2019-02-20T06:29:57.415Z,44.27
2019-02-20T06:35:02.530Z,44.87
2019-02-20T06:40:08.753Z,47.53
2019-02-20T06:45:13.857Z,44.00
2019-02-20T06:50:21.061Z,39.57
2019-02-20T06:55:26.236Z,38.40
2019-02-20T07:00:31.376Z,39.37
2019-02-20T07:05:44.893Z,39.60
2019-02-20T07:11:30.138Z,43.40
2019-02-20T07:17:04.148Z,43.77
2019-02-20T07:22:34.382Z,40.53
2019-02-20T07:28:09.902Z,33.33
2019-02-20T07:33:15.587Z,30.63
2019-02-20T07:38:20.775Z,32.03
2019-02-20T07:43:26.324Z,34.80
2019-02-20T07:48:31.431Z,35.10
2019-02-20T07:53:36.987Z,36.20
2019-02-20T07:58:42.597Z,31.57
2019-02-20T08:03:47.861Z,29.83
2019-02-20T08:08:53.405Z,33.73
2019-02-20T08:14:03.722Z,35.83
2019-02-20T08:19:08.850Z,34.27
2019-02-20T08:24:18.983Z,35.17
2019-02-20T08:29:24.098Z,29.87
2019-02-20T08:34:29.289Z,30.23
2019-02-20T08:39:34.531Z,28.33
2019-02-20T08:44:42.556Z,32.10
2019-02-20T08:49:47.645Z,34.83
2019-02-20T08:54:56.347Z,35.03
2019-02-20T09:00:05.703Z,34.63
2019-02-20T09:05:12.971Z,33.73
2019-02-20T09:10:19.202Z,32.60
2019-02-20T09:15:24.501Z,28.53
2019-02-20T09:20:30.191Z,31.70
2019-02-20T09:25:41.641Z,28.10
2019-02-20T09:30:42.650Z,28.17
2019-02-20T09:35:48.055Z,28.50
2019-02-20T09:40:55.044Z,26.03
2019-02-20T09:46:00.590Z,26.37
2019-02-20T09:51:05.818Z,25.43
2019-02-20T09:56:11.107Z,24.57
2019-02-20T10:01:16.237Z,25.30
2019-02-20T10:36:53.981Z,28.20
2019-02-20T10:41:59.303Z,26.60
2019-02-20T10:47:04.423Z,25.47
2019-02-20T10:52:09.905Z,26.40
2019-02-20T10:57:15.168Z,28.13
2019-02-20T11:02:20.565Z,27.23
2019-02-20T11:07:25.857Z,27.60
2019-02-20T11:12:39.061Z,25.47
2019-02-20T11:17:44.917Z,23.33
2019-02-20T11:22:51.194Z,28.23
2019-02-20T11:28:07.430Z,28.47
2019-02-20T11:33:14.857Z,34.30
2019-02-20T11:38:20.337Z,25.20
2019-02-20T11:43:34.629Z,25.23
2019-02-20T11:48:42.656Z,25.37
2019-02-20T11:53:49.269Z,24.32
2019-02-20T11:59:01.369Z,23.02
2019-02-20T12:04:12.246Z,23.35
2019-02-20T12:09:19.042Z,22.87
2019-02-20T12:14:24.834Z,22.37
2019-02-20T12:19:42.781Z,22.05
2019-02-20T12:24:49.526Z,21.97
2019-02-20T12:29:57.257Z,23.77
2019-02-20T12:35:05.154Z,21.73
2019-02-20T12:40:11.927Z,20.95
2019-02-20T12:45:24.411Z,19.37
2019-02-20T12:50:30.450Z,21.23
2019-02-20T12:55:40.681Z,20.27
2019-02-20T13:00:57.353Z,18.75
2019-02-20T13:06:03.451Z,18.87
2019-02-20T13:11:09.751Z,18.33
2019-02-20T13:16:15.272Z,21.52
2019-02-20T13:21:23.774Z,18.35
2019-02-20T13:26:29.464Z,23.85
2019-02-20T13:31:34.724Z,23.83
2019-02-20T13:36:40.189Z,20.62
2019-02-20T13:41:45.347Z,19.00
2019-02-20T13:46:50.759Z,20.05
2019-02-20T13:51:57.137Z,16.45
2019-02-20T13:57:02.534Z,19.03
2019-02-20T14:02:08.056Z,20.13
2019-02-20T14:07:16.309Z,22.70
2019-02-20T14:12:22.452Z,22.20
2019-02-20T14:17:28.341Z,22.52
2019-02-20T14:22:34.327Z,22.37
2019-02-20T14:28:13.254Z,22.27
2019-02-20T14:33:22.603Z,22.10
2019-02-20T14:38:27.865Z,21.68
2019-02-20T14:43:33.245Z,22.40
2019-02-20T14:48:38.624Z,22.73
2019-02-20T14:53:44.407Z,23.10
2019-02-20T14:58:52.889Z,23.80
2019-02-20T15:03:58.725Z,25.70
2019-02-20T15:09:06.034Z,23.27
2019-02-20T15:14:13.371Z,24.07
2019-02-20T15:19:19.753Z,29.90
2019-02-20T15:24:25.149Z,26.13
2019-02-20T15:29:32.521Z,31.30
2019-02-20T15:34:39.651Z,26.57
2019-02-20T15:39:45.391Z,22.20
2019-02-20T15:44:50.974Z,22.93
2019-02-20T15:49:56.411Z,23.13
2019-02-20T15:55:04.146Z,22.63
2019-02-20T16:00:11.498Z,21.03
2019-02-20T16:05:16.769Z,22.97
2019-02-20T16:10:22.444Z,21.50
2019-02-20T16:15:27.757Z,23.53
2019-02-20T16:20:35.171Z,20.37
2019-02-20T16:25:45.874Z,23.03
2019-02-20T16:30:51.381Z,21.87
2019-02-20T16:35:57.571Z,22.70
2019-02-20T16:41:04.770Z,23.00
2019-02-20T16:46:10.015Z,22.57
2019-02-20T16:51:15.337Z,24.93
2019-02-20T16:56:20.873Z,24.60
2019-02-20T17:01:26.464Z,25.47
2019-02-20T17:06:31.884Z,22.63
2019-02-20T17:11:37.257Z,24.07
2019-02-20T17:16:42.403Z,22.90
2019-02-20T17:21:47.559Z,26.17
2019-02-20T17:26:53.553Z,25.47
2019-02-20T17:31:59.070Z,27.33
2019-02-20T17:37:04.218Z,27.80
2019-02-20T17:42:09.350Z,32.77
2019-02-20T17:47:14.939Z,27.20
2019-02-20T17:52:21.473Z,21.00
2019-02-20T17:57:26.719Z,22.17
2019-02-20T18:02:32.193Z,25.50
2019-02-20T18:07:38.121Z,22.53
2019-02-20T18:12:43.393Z,26.23
2019-02-20T18:17:48.516Z,25.67
2019-02-20T18:22:54.411Z,25.00
2019-02-20T18:27:59.915Z,23.73
2019-02-20T18:33:05.432Z,23.93
2019-02-20T18:38:10.635Z,24.03
2019-02-20T18:43:16.055Z,28.03
2019-02-20T18:48:25.843Z,25.83
2019-02-20T18:53:32.084Z,24.70
2019-02-20T18:58:38.476Z,24.87
2019-02-20T19:03:44.217Z,25.07
2019-02-20T19:08:56.335Z,26.13
2019-02-20T19:14:25.974Z,24.17
2019-02-20T19:20:03.224Z,27.60
2019-02-20T19:25:37.329Z,27.63
2019-02-20T19:31:26.863Z,27.90
2019-02-20T19:37:19.164Z,28.37
2019-02-20T19:42:49.439Z,25.83
2019-02-20T19:48:21.965Z,26.80
2019-02-20T19:53:48.760Z,28.60
2019-02-20T19:59:21.714Z,27.03
2019-02-20T20:04:56.702Z,27.27
2019-02-20T20:10:46.472Z,28.73
2019-02-20T20:16:24.607Z,29.07
2019-02-20T20:22:07.854Z,30.77
2019-02-20T20:27:46.949Z,30.33
2019-02-20T20:33:45.589Z,31.87
2019-02-20T20:39:15.932Z,29.67
2019-02-20T20:44:48.120Z,29.30
2019-02-20T20:50:46.435Z,36.23
2019-02-20T20:56:23.511Z,32.50
2019-02-20T21:01:39.447Z,31.77
2019-02-20T21:07:35.337Z,29.53
2019-02-20T21:13:23.451Z,33.03
2019-02-20T21:19:21.468Z,29.03
2019-02-20T21:25:01.401Z,25.97
2019-02-20T21:30:42.815Z,27.53
2019-02-20T21:36:14.594Z,30.40
2019-02-20T21:42:00.326Z,31.17
2019-02-20T21:47:40.800Z,32.70
2019-02-20T21:52:52.362Z,35.03
2019-02-20T21:58:23.075Z,35.40
2019-02-20T22:03:53.725Z,29.27
2019-02-20T22:09:27.154Z,29.33
2019-02-20T22:14:57.704Z,27.60
2019-02-20T22:20:47.198Z,30.90
2019-02-20T22:26:08.975Z,31.70
2019-02-20T22:32:00.565Z,31.13
2019-02-20T22:37:34.516Z,36.70
2019-02-20T22:43:32.758Z,37.87
2019-02-20T22:49:18.016Z,37.60
2019-02-20T22:55:06.981Z,35.43
2019-02-20T23:01:08.034Z,34.03
2019-02-20T23:07:10.740Z,34.47
2019-02-20T23:12:54.628Z,38.27
2019-02-20T23:17:59.805Z,32.50
2019-02-20T23:23:23.965Z,33.03
2019-02-20T23:28:33.711Z,31.17
2019-02-20T23:33:39.195Z,27.60
2019-02-20T23:38:44.514Z,30.50
2019-02-20T23:43:52.149Z,30.90
2019-02-20T23:49:01.510Z,30.13
2019-02-20T23:54:10.150Z,28.90
2019-02-20T23:59:15.347Z,30.27
